createdAt,value
2018-07-08T00:02:14.912Z,69.31
2018-07-08T00:04:45.128Z,69.29
2018-07-08T00:07:15.201Z,69.72
2018-07-08T00:09:45.165Z,69.93
2018-07-08T00:12:15.434Z,70.43
2018-07-08T00:14:45.637Z,71.56
2018-07-08T00:17:16.024Z,72.00
2018-07-08T00:19:46.075Z,72.44
2018-07-08T00:22:16.376Z,72.06
2018-07-08T00:24:46.372Z,73.03
2018-07-08T00:27:16.785Z,73.58
2018-07-08T00:29:47.016Z,73.80
2018-07-08T00:32:21.401Z,74.00
2018-07-08T00:34:51.782Z,74.85
2018-07-08T00:37:22.097Z,74.91
2018-07-08T00:39:52.713Z,74.33
2018-07-08T00:42:23.150Z,73.65
2018-07-08T00:44:53.372Z,72.95
2018-07-08T00:47:23.663Z,73.38
2018-07-08T00:49:53.955Z,74.23
2018-07-08T00:52:24.489Z,75.01
2018-07-08T00:54:55.585Z,75.37
2018-07-08T00:57:25.957Z,75.65
2018-07-08T00:59:56.247Z,75.80
2018-07-08T01:02:26.439Z,75.29
2018-07-08T01:04:56.637Z,75.33
2018-07-08T01:07:26.833Z,75.73
2018-07-08T01:09:57.057Z,76.32
2018-07-08T01:12:27.717Z,76.68
2018-07-08T01:14:57.880Z,76.68
2018-07-08T01:17:28.168Z,76.74
2018-07-08T01:19:58.443Z,76.95
2018-07-08T01:22:28.665Z,75.94
2018-07-08T01:25:17.971Z,74.83
2018-07-08T01:27:47.951Z,74.44
2018-07-08T01:30:17.972Z,74.49
2018-07-08T01:32:48.213Z,74.74
2018-07-08T01:35:18.429Z,75.31
2018-07-08T01:37:48.621Z,76.05
2018-07-08T01:40:18.820Z,76.47
2018-07-08T01:42:48.950Z,76.50
2018-07-08T01:45:19.160Z,76.55
2018-07-08T01:47:49.371Z,77.17
2018-07-08T01:50:23.172Z,77.61
2018-07-08T01:52:55.951Z,77.96
2018-07-08T01:55:26.568Z,77.97
2018-07-08T01:58:02.048Z,77.81
2018-07-08T02:00:32.609Z,78.15
2018-07-08T02:03:02.736Z,78.34
2018-07-08T02:05:32.954Z,78.03
2018-07-08T02:08:03.220Z,77.94
2018-07-08T02:10:33.401Z,78.31
2018-07-08T02:13:03.670Z,77.80
2018-07-08T02:15:33.879Z,77.04
2018-07-08T02:18:04.088Z,77.08
2018-07-08T02:20:34.350Z,77.13
2018-07-08T02:23:04.800Z,76.98
2018-07-08T02:25:34.782Z,76.87
2018-07-08T02:28:05.005Z,76.32
2018-07-08T02:30:35.469Z,76.20
2018-07-08T02:33:05.824Z,76.32
2018-07-08T02:35:36.653Z,76.87
2018-07-08T02:38:06.956Z,77.09
2018-07-08T02:40:37.436Z,77.28
2018-07-08T02:43:07.749Z,77.75
2018-07-08T02:45:37.949Z,77.66
2018-07-08T02:48:08.336Z,77.54
2018-07-08T02:50:39.248Z,77.82
2018-07-08T02:53:09.491Z,77.96
2018-07-08T02:55:39.687Z,79.05
2018-07-08T02:58:09.859Z,79.07
2018-07-08T03:00:40.044Z,79.23
2018-07-08T03:03:10.307Z,79.19
2018-07-08T03:05:46.888Z,79.64
2018-07-08T03:08:17.080Z,80.06
2018-07-08T03:10:47.293Z,80.24
2018-07-08T03:13:17.493Z,79.01
2018-07-08T03:15:47.694Z,78.39
2018-07-08T03:18:17.890Z,78.21
2018-07-08T03:20:48.096Z,77.51
2018-07-08T03:23:18.300Z,76.86
2018-07-08T03:25:48.478Z,76.38
2018-07-08T03:28:18.665Z,74.51
2018-07-08T03:30:48.936Z,74.24
2018-07-08T03:33:19.142Z,74.12
2018-07-08T03:35:49.376Z,74.47
2018-07-08T03:38:19.564Z,75.03
2018-07-08T03:40:50.138Z,74.94
2018-07-08T03:43:20.438Z,74.60
2018-07-08T03:45:50.648Z,73.94
2018-07-08T03:48:20.841Z,73.82
2018-07-08T03:50:51.145Z,73.63
2018-07-08T03:53:21.376Z,73.94
2018-07-08T03:55:51.355Z,72.99
2018-07-08T03:58:21.583Z,71.95
2018-07-08T04:00:51.544Z,71.23
2018-07-08T04:03:21.496Z,71.74
2018-07-08T04:05:51.669Z,68.66
2018-07-08T04:08:22.225Z,67.17
2018-07-08T04:10:52.653Z,66.44
2018-07-08T04:13:22.835Z,66.34
2018-07-08T04:15:53.018Z,67.08
2018-07-08T04:18:23.183Z,68.03
2018-07-08T04:20:53.377Z,66.75
2018-07-08T04:23:23.726Z,66.31
2018-07-08T04:25:53.918Z,65.76
2018-07-08T04:28:24.169Z,65.69
2018-07-08T04:30:54.348Z,63.61
2018-07-08T04:33:24.537Z,62.67
2018-07-08T04:35:54.718Z,62.75
2018-07-08T04:38:24.936Z,62.35
2018-07-08T04:40:55.176Z,62.25
2018-07-08T04:43:25.385Z,60.79
2018-07-08T04:45:55.556Z,60.26
2018-07-08T04:48:25.740Z,58.93
2018-07-08T04:50:56.062Z,58.22
2018-07-08T04:53:26.833Z,57.55
2018-07-08T04:55:57.622Z,57.83
2018-07-08T04:58:28.418Z,57.66
2018-07-08T05:00:59.234Z,55.81
2018-07-08T05:03:30.345Z,53.84
2018-07-08T05:06:01.131Z,52.74
2018-07-08T05:08:31.932Z,51.77
2018-07-08T05:11:02.949Z,49.82
2018-07-08T05:13:33.728Z,47.91
2018-07-08T05:16:04.540Z,44.24
2018-07-08T05:18:35.353Z,41.28
2018-07-08T05:21:06.617Z,38.50
2018-07-08T05:23:37.386Z,37.56
2018-07-08T05:26:07.966Z,37.05
2018-07-08T05:28:38.797Z,37.77
2018-07-08T05:31:09.571Z,37.35
2018-07-08T05:33:40.404Z,36.04
2018-07-08T05:36:11.225Z,32.50
2018-07-08T05:38:42.029Z,31.51
2018-07-08T05:41:12.793Z,30.08
2018-07-08T05:43:43.997Z,28.88
2018-07-08T05:46:14.767Z,28.51
2018-07-08T05:48:45.595Z,29.90
2018-07-08T05:51:16.546Z,29.61
2018-07-08T05:53:47.375Z,28.49
2018-07-08T05:56:18.129Z,27.83
2018-07-08T05:58:48.933Z,26.78
2018-07-08T06:01:19.705Z,26.12
2018-07-08T06:03:50.496Z,24.31
2018-07-08T06:06:21.280Z,23.72
2018-07-08T06:08:51.557Z,24.27
2018-07-08T06:11:22.079Z,24.77
2018-07-08T06:13:52.666Z,24.93
2018-07-08T06:16:23.302Z,25.25
2018-07-08T06:18:53.849Z,22.76
2018-07-08T06:21:24.319Z,20.11
2018-07-08T06:23:54.861Z,19.24
2018-07-08T06:26:25.374Z,18.22
2018-07-08T06:28:56.333Z,17.03
2018-07-08T06:31:26.927Z,18.47
2018-07-08T06:33:57.416Z,17.06
2018-07-08T06:36:27.940Z,18.12
2018-07-08T06:38:58.457Z,18.59
2018-07-08T06:41:28.925Z,19.18
2018-07-08T06:44:00.214Z,19.19
2018-07-08T06:46:30.886Z,18.00
2018-07-08T06:49:01.581Z,18.46
2018-07-08T06:51:32.297Z,17.37
2018-07-08T06:54:02.933Z,16.34
2018-07-08T06:56:33.408Z,17.49
2018-07-08T06:59:04.126Z,17.01
2018-07-08T07:01:35.159Z,18.40
2018-07-08T07:04:06.310Z,19.63
2018-07-08T07:06:36.929Z,20.99
2018-07-08T07:09:09.324Z,21.25
2018-07-08T07:11:40.507Z,21.94
2018-07-08T07:14:10.808Z,22.14
2018-07-08T07:16:41.658Z,22.96
2018-07-08T07:19:12.556Z,23.39
2018-07-08T07:21:43.362Z,25.14
2018-07-08T07:24:14.181Z,25.95
2018-07-08T07:26:45.211Z,26.50
2018-07-08T07:29:15.978Z,27.04
2018-07-08T07:31:46.745Z,27.45
2018-07-08T07:34:17.561Z,27.49
2018-07-08T07:36:48.082Z,28.03
2018-07-08T07:39:18.860Z,28.25
2018-07-08T07:41:49.593Z,29.42
2018-07-08T07:44:20.399Z,29.20
2018-07-08T07:46:51.165Z,31.05
2018-07-08T07:49:21.989Z,31.01
2018-07-08T07:51:52.849Z,30.77
2018-07-08T07:54:23.661Z,29.90
2018-07-08T07:56:54.439Z,30.30
2018-07-08T07:59:25.282Z,31.45
2018-07-08T08:01:56.159Z,31.84
2018-07-08T08:04:28.637Z,30.63
2018-07-08T08:07:03.808Z,30.01
2018-07-08T08:09:35.202Z,30.56
2018-07-08T08:12:05.981Z,29.95
2018-07-08T08:14:36.796Z,28.92
2018-07-08T08:17:07.757Z,28.87
2018-07-08T08:19:38.541Z,28.37
2018-07-08T08:22:09.310Z,28.42
2018-07-08T08:24:40.082Z,29.59
2018-07-08T08:27:10.882Z,29.52
2018-07-08T08:29:41.685Z,28.31
2018-07-08T08:32:12.547Z,27.69
2018-07-08T08:34:58.536Z,27.37
2018-07-08T08:37:31.285Z,27.32
2018-07-08T08:40:02.665Z,27.21
2018-07-08T08:42:33.451Z,27.52
2018-07-08T08:45:04.394Z,28.34
2018-07-08T08:47:35.258Z,27.77
2018-07-08T08:50:06.729Z,27.71
2018-07-08T08:52:37.635Z,27.15
2018-07-08T08:55:09.153Z,24.58
2018-07-08T08:57:39.985Z,22.60
2018-07-08T09:00:13.080Z,22.12
2018-07-08T09:02:43.989Z,20.07
2018-07-08T09:05:15.464Z,18.59
2018-07-08T09:07:45.997Z,18.61
2018-07-08T09:10:16.553Z,19.36
2018-07-08T09:12:47.069Z,19.26
2018-07-08T09:15:17.585Z,19.50
2018-07-08T09:17:48.100Z,18.51
2018-07-08T09:20:19.037Z,18.51
2018-07-08T09:22:49.820Z,20.54
2018-07-08T09:25:21.090Z,23.04
2018-07-08T09:27:51.828Z,25.52
2018-07-08T09:30:23.123Z,25.24
2018-07-08T09:32:53.897Z,25.94
2018-07-08T09:35:24.746Z,25.59
2018-07-08T09:37:55.497Z,24.91
2018-07-08T09:40:26.541Z,24.51
2018-07-08T09:42:57.361Z,25.55
2018-07-08T09:45:28.452Z,26.82
2018-07-08T09:47:59.301Z,28.36
2018-07-08T09:50:30.855Z,28.87
2018-07-08T09:53:02.504Z,28.64
2018-07-08T09:55:33.313Z,28.45
2018-07-08T09:58:04.424Z,28.17
2018-07-08T10:00:37.661Z,28.59
2018-07-08T10:03:09.139Z,28.72
2018-07-08T10:05:39.987Z,30.24
2018-07-08T10:08:10.757Z,29.34
2018-07-08T10:10:41.563Z,29.65
2018-07-08T10:13:12.373Z,29.32
2018-07-08T10:15:43.273Z,29.18
2018-07-08T10:18:14.113Z,29.69
2018-07-08T10:20:44.943Z,28.93
2018-07-08T10:23:15.826Z,30.21
2018-07-08T10:25:47.580Z,31.94
2018-07-08T10:31:00.031Z,29.13
2018-07-08T10:34:07.580Z,28.35
2018-07-08T10:36:38.455Z,28.94
2018-07-08T10:39:11.774Z,30.02
2018-07-08T10:41:43.880Z,30.41
2018-07-08T10:44:14.765Z,29.64
2018-07-08T10:46:45.560Z,30.62
2018-07-08T10:49:16.379Z,30.08
2018-07-08T10:51:47.232Z,30.95
2018-07-08T10:54:18.146Z,30.75
2018-07-08T10:56:49.154Z,30.95
2018-07-08T10:59:20.071Z,31.14
2018-07-08T11:01:50.920Z,31.99
2018-07-08T11:04:22.009Z,32.81
2018-07-08T11:06:52.865Z,33.06
2018-07-08T11:09:23.837Z,33.49
2018-07-08T11:11:54.661Z,32.50
2018-07-08T11:14:25.429Z,32.71
2018-07-08T11:16:56.328Z,33.74
2018-07-08T11:19:27.113Z,33.83
2018-07-08T11:21:57.907Z,34.73
2018-07-08T11:24:28.717Z,35.52
2018-07-08T11:26:59.621Z,33.62
2018-07-08T11:29:30.385Z,35.01
2018-07-08T11:32:01.207Z,34.77
2018-07-08T11:34:31.972Z,33.28
2018-07-08T11:37:02.789Z,33.91
2018-07-08T11:39:33.526Z,34.12
2018-07-08T11:42:04.964Z,33.18
2018-07-08T11:44:35.716Z,32.66
2018-07-08T11:47:06.686Z,31.71
2018-07-08T11:49:37.517Z,33.14
2018-07-08T11:52:08.345Z,33.30
2018-07-08T11:54:39.234Z,33.56
2018-07-08T11:57:10.096Z,32.37
2018-07-08T11:59:40.858Z,31.58
2018-07-08T12:02:11.653Z,32.04
2018-07-08T12:04:42.413Z,31.51
2018-07-08T12:07:13.216Z,32.60
2018-07-08T12:09:43.985Z,32.09
2018-07-08T12:12:14.781Z,32.92
2018-07-08T12:14:45.617Z,32.64
2018-07-08T12:17:16.442Z,32.24
2018-07-08T12:19:47.276Z,32.32
2018-07-08T12:22:18.089Z,32.44
2018-07-08T12:24:48.931Z,31.77
2018-07-08T12:27:19.720Z,31.42
2018-07-08T12:29:50.541Z,30.21
2018-07-08T12:32:21.340Z,31.23
2018-07-08T12:34:52.105Z,31.42
2018-07-08T12:37:22.963Z,31.87
2018-07-08T12:39:53.738Z,32.11
2018-07-08T12:42:24.582Z,32.09
2018-07-08T12:44:55.405Z,33.30
2018-07-08T12:47:26.622Z,32.88
2018-07-08T12:49:57.436Z,32.72
2018-07-08T12:52:28.290Z,32.91
2018-07-08T12:54:59.096Z,32.65
2018-07-08T12:57:29.967Z,33.52
2018-07-08T13:00:01.106Z,34.07
2018-07-08T13:02:31.998Z,34.94
2018-07-08T13:05:03.669Z,34.38
2018-07-08T13:07:34.485Z,35.97
2018-07-08T13:10:05.359Z,36.64
2018-07-08T13:12:36.209Z,35.61
2018-07-08T13:15:07.089Z,35.42
2018-07-08T13:17:37.877Z,35.02
2018-07-08T13:20:09.010Z,35.94
2018-07-08T13:22:39.829Z,35.90
2018-07-08T13:25:10.673Z,36.18
2018-07-08T13:27:41.966Z,36.03
2018-07-08T13:30:13.876Z,36.72
2018-07-08T13:32:45.453Z,37.64
2018-07-08T13:35:16.325Z,37.12
2018-07-08T13:37:47.278Z,36.15
2018-07-08T13:40:18.158Z,36.36
2018-07-08T13:42:49.259Z,35.58
2018-07-08T13:45:20.160Z,36.07
2018-07-08T13:47:50.998Z,35.92
2018-07-08T13:50:21.880Z,35.58
2018-07-08T13:52:52.914Z,35.04
2018-07-08T13:55:23.950Z,35.65
2018-07-08T13:57:55.282Z,35.27
2018-07-08T14:00:26.121Z,34.44
2018-07-08T14:02:56.960Z,34.49
2018-07-08T14:05:27.757Z,33.93
2018-07-08T14:07:58.616Z,34.11
2018-07-08T14:10:29.386Z,33.22
2018-07-08T14:13:00.217Z,33.57
2018-07-08T14:15:30.966Z,33.35
2018-07-08T14:18:01.802Z,33.51
2018-07-08T14:20:32.646Z,33.60
2018-07-08T14:23:03.701Z,31.78
2018-07-08T14:25:34.474Z,32.17
2018-07-08T14:28:05.879Z,33.00
2018-07-08T14:30:36.774Z,34.33
2018-07-08T14:33:08.258Z,34.56
2018-07-08T14:35:39.181Z,35.20
2018-07-08T14:38:10.505Z,35.51
2018-07-08T14:40:41.280Z,35.28
2018-07-08T14:43:12.113Z,36.46
2018-07-08T14:45:42.880Z,36.41
2018-07-08T14:48:13.844Z,37.13
2018-07-08T14:50:44.675Z,37.49
2018-07-08T14:53:15.613Z,36.89
2018-07-08T14:55:46.777Z,37.53
2018-07-08T14:58:17.602Z,37.38
2018-07-08T15:00:48.740Z,36.83
2018-07-08T15:03:19.594Z,37.19
2018-07-08T15:05:50.377Z,36.41
2018-07-08T15:08:21.200Z,35.61
2018-07-08T15:10:52.233Z,34.67
2018-07-08T15:13:23.074Z,35.44
2018-07-08T15:15:53.702Z,35.54
2018-07-08T15:18:24.725Z,35.45
2018-07-08T15:20:55.553Z,35.81
2018-07-08T15:23:26.383Z,36.51
2018-07-08T15:25:57.177Z,35.36
2018-07-08T15:28:28.042Z,35.84
2018-07-08T15:30:58.836Z,35.99
2018-07-08T15:33:29.702Z,36.54
2018-07-08T15:36:00.526Z,36.82
2018-07-08T15:38:31.390Z,36.86
2018-07-08T15:41:02.242Z,36.65
2018-07-08T15:43:33.877Z,36.47
2018-07-08T15:46:04.673Z,35.75
2018-07-08T15:48:35.460Z,35.70
2018-07-08T15:51:06.596Z,35.66
2018-07-08T15:53:37.501Z,35.64
2018-07-08T15:56:08.488Z,36.17
2018-07-08T15:58:39.308Z,36.51
2018-07-08T16:01:10.143Z,36.10
2018-07-08T16:03:40.973Z,37.03
2018-07-08T16:06:11.774Z,36.33
2018-07-08T16:08:42.662Z,36.72
2018-07-08T16:11:13.441Z,38.06
2018-07-08T16:13:44.396Z,37.74
2018-07-08T16:16:15.178Z,37.89
2018-07-08T16:18:46.057Z,38.33
2018-07-08T16:21:17.114Z,38.15
2018-07-08T16:23:48.198Z,37.41
2018-07-08T16:26:18.962Z,37.83
2018-07-08T16:28:51.850Z,37.01
2018-07-08T16:31:22.709Z,37.56
2018-07-08T16:33:53.570Z,37.49
2018-07-08T16:36:24.415Z,36.84
2018-07-08T16:38:55.634Z,37.31
2018-07-08T16:41:26.564Z,38.37
2018-07-08T16:43:57.481Z,36.72
2018-07-08T16:46:28.291Z,37.29
2018-07-08T16:48:59.142Z,38.07
2018-07-08T16:51:29.906Z,37.16
2018-07-08T16:54:00.778Z,38.27
2018-07-08T16:56:31.695Z,38.50
2018-07-08T16:59:02.560Z,37.64
2018-07-08T17:01:33.440Z,37.53
2018-07-08T17:04:04.257Z,37.95
2018-07-08T17:06:35.073Z,39.17
2018-07-08T17:09:07.685Z,38.03
2018-07-08T17:11:38.863Z,38.33
2018-07-08T17:14:09.685Z,38.32
2018-07-08T17:16:40.473Z,38.22
2018-07-08T17:19:11.301Z,38.09
2018-07-08T17:21:42.062Z,38.47
2018-07-08T17:24:12.882Z,39.03
2018-07-08T17:26:43.654Z,38.84
2018-07-08T17:29:14.457Z,38.79
2018-07-08T17:31:45.346Z,39.75
2018-07-08T17:34:16.271Z,39.83
2018-07-08T17:36:47.023Z,39.59
2018-07-08T17:39:17.792Z,39.75
2018-07-08T17:41:55.312Z,40.41
2018-07-08T17:44:26.546Z,40.25
2018-07-08T17:46:57.345Z,40.37
2018-07-08T17:49:28.549Z,40.40
2018-07-08T17:51:59.366Z,40.28
2018-07-08T17:54:29.985Z,40.88
2018-07-08T17:57:00.850Z,41.01
2018-07-08T17:59:31.721Z,40.82
2018-07-08T18:02:02.522Z,41.50
2018-07-08T18:04:33.329Z,41.86
2018-07-08T18:07:04.157Z,42.79
2018-07-08T18:09:34.955Z,42.04
2018-07-08T18:12:05.778Z,42.88
2018-07-08T18:14:36.468Z,42.65
2018-07-08T18:17:07.793Z,42.64
2018-07-08T18:19:38.629Z,42.71
2018-07-08T18:22:09.451Z,43.98
2018-07-08T18:24:40.292Z,44.76
2018-07-08T18:27:11.135Z,45.13
2018-07-08T18:29:41.965Z,45.67
2018-07-08T18:32:12.821Z,46.56
2018-07-08T18:34:43.677Z,47.47
2018-07-08T18:37:14.453Z,48.58
2018-07-08T18:39:45.700Z,48.46
2018-07-08T18:42:16.449Z,49.03
2018-07-08T18:44:47.318Z,49.40
2018-07-08T18:47:18.222Z,50.60
2018-07-08T18:49:49.014Z,50.71
2018-07-08T18:52:19.876Z,51.59
2018-07-08T18:54:50.703Z,51.64
2018-07-08T18:57:21.617Z,51.62
2018-07-08T18:59:51.870Z,52.60
2018-07-08T19:02:22.741Z,53.42
2018-07-08T19:04:52.961Z,54.25
2018-07-08T19:07:23.719Z,54.33
2018-07-08T19:09:54.534Z,53.93
2018-07-08T19:12:24.758Z,54.33
2018-07-08T19:14:55.316Z,54.49
2018-07-08T19:17:25.585Z,54.03
2018-07-08T19:19:55.781Z,55.25
2018-07-08T19:22:26.150Z,56.04
2018-07-08T19:24:56.721Z,56.74
2018-07-08T19:27:27.621Z,56.79
2018-07-08T19:29:58.425Z,58.03
2018-07-08T19:32:29.450Z,58.20
2018-07-08T19:35:00.661Z,58.67
2018-07-08T19:37:31.546Z,58.42
2018-07-08T19:40:02.409Z,58.59
2018-07-08T19:42:33.248Z,58.75
2018-07-08T19:45:04.484Z,58.28
2018-07-08T19:47:35.516Z,57.77
2018-07-08T19:50:06.613Z,57.20
2018-07-08T19:52:38.116Z,57.20
2018-07-08T19:55:09.169Z,57.62
2018-07-08T19:57:40.213Z,57.16
2018-07-08T20:00:11.058Z,57.24
2018-07-08T20:02:42.003Z,57.82
2018-07-08T20:05:12.805Z,58.91
2018-07-08T20:07:47.985Z,60.41
2018-07-08T20:10:18.973Z,60.67
2018-07-08T20:12:49.863Z,62.38
2018-07-08T20:15:20.433Z,62.71
2018-07-08T20:17:50.717Z,63.04
2018-07-08T20:20:21.517Z,63.62
2018-07-08T20:22:51.776Z,64.10
2018-07-08T20:25:21.977Z,64.87
2018-07-08T20:27:52.031Z,65.39
2018-07-08T20:30:22.251Z,65.86
2018-07-08T20:32:52.482Z,65.96
2018-07-08T20:35:22.776Z,66.16
2018-07-08T20:37:53.662Z,66.20
2018-07-08T20:40:23.856Z,65.94
2018-07-08T20:42:54.211Z,66.27
2018-07-08T20:45:24.441Z,65.81
2018-07-08T20:47:54.997Z,65.88
2018-07-08T20:50:25.254Z,66.72
2018-07-08T20:52:55.483Z,66.69
2018-07-08T20:55:25.776Z,66.79
2018-07-08T20:57:56.150Z,65.87
2018-07-08T21:00:26.362Z,66.03
2018-07-08T21:02:56.626Z,65.59
2018-07-08T21:05:26.969Z,65.31
2018-07-08T21:07:57.209Z,65.25
2018-07-08T21:10:27.448Z,66.19
2018-07-08T21:12:57.673Z,65.97
2018-07-08T21:15:27.910Z,65.67
2018-07-08T21:17:58.225Z,64.90
2018-07-08T21:20:28.475Z,65.48
2018-07-08T21:22:59.110Z,65.96
2018-07-08T21:25:29.381Z,66.68
2018-07-08T21:27:59.700Z,66.98
2018-07-08T21:30:30.057Z,67.18
2018-07-08T21:33:00.665Z,68.02
2018-07-08T21:35:30.921Z,68.16
2018-07-08T21:38:01.821Z,68.62
2018-07-08T21:40:32.098Z,68.69
2018-07-08T21:43:02.349Z,69.21
2018-07-08T21:45:32.605Z,69.15
2018-07-08T21:48:02.819Z,68.76
2018-07-08T21:50:33.061Z,69.24
2018-07-08T21:53:03.258Z,69.46
2018-07-08T21:55:33.480Z,69.61
2018-07-08T21:58:03.907Z,70.28
2018-07-08T22:00:34.338Z,71.11
2018-07-08T22:03:04.543Z,71.26
2018-07-08T22:05:34.547Z,70.93
2018-07-08T22:08:05.679Z,69.95
2018-07-08T22:10:35.891Z,70.30
2018-07-08T22:13:06.113Z,70.78
2018-07-08T22:15:36.315Z,70.29
2018-07-08T22:18:06.581Z,70.35
2018-07-08T22:20:36.935Z,71.12
2018-07-08T22:23:07.147Z,71.37
2018-07-08T22:25:37.441Z,70.17
2018-07-08T22:28:07.709Z,69.67
2018-07-08T22:30:37.951Z,70.60
2018-07-08T22:33:08.079Z,70.70
2018-07-08T22:35:38.559Z,70.36
2018-07-08T22:38:08.824Z,69.56
2018-07-08T22:40:39.122Z,70.09
2018-07-08T22:43:09.457Z,70.55
2018-07-08T22:45:39.642Z,70.03
2018-07-08T22:48:09.867Z,70.19
2018-07-08T22:50:40.052Z,70.37
2018-07-08T22:53:10.272Z,70.20
2018-07-08T22:55:40.523Z,70.09
2018-07-08T22:58:10.917Z,69.80
2018-07-08T23:00:52.254Z,69.95
2018-07-08T23:03:47.784Z,70.05
2018-07-08T23:06:19.066Z,69.49
2018-07-08T23:08:50.045Z,68.50
2018-07-08T23:11:21.119Z,68.63
2018-07-08T23:13:52.279Z,69.24
2018-07-08T23:16:23.109Z,68.75
2018-07-08T23:18:53.669Z,69.52
2018-07-08T23:21:23.958Z,69.63
2018-07-08T23:23:54.215Z,70.57
2018-07-08T23:26:24.425Z,71.59
2018-07-08T23:28:54.686Z,71.26
2018-07-08T23:31:24.874Z,72.82
2018-07-08T23:33:55.069Z,72.74
2018-07-08T23:36:25.311Z,73.35
2018-07-08T23:38:55.560Z,73.55
2018-07-08T23:41:25.782Z,74.36
2018-07-08T23:43:56.018Z,74.71
2018-07-08T23:46:26.324Z,74.38
2018-07-08T23:48:56.325Z,75.00
2018-07-08T23:51:26.489Z,75.19
2018-07-08T23:53:56.716Z,75.29
2018-07-08T23:56:27.304Z,75.20
2018-07-08T23:58:57.670Z,75.80
